Time;durP1;ratioP1;P1;durP2;ratioP2;P2;SDS_P1;SDS_P2;PMS_P1;PMS_P2;Temp;Humidity;BMP_temperature;BMP_pressure;BME280_temperature;BME280_humidity;BME280_pressure;Samples;Min_cycle;Max_cycle;Signal;HPM_P1;HPM_P2
2023/01/05 00:00:25;;;;;;;;;;;18.70;66.40;;;;;;4970683;28;1574;-68
2023/01/05 00:02:50;;;;;;;;;;;18.70;66.40;;;;;;4972155;28;1598;-68
2023/01/05 00:05:16;;;;;;;;;;;18.70;66.40;;;;;;4973017;28;1903;-68
2023/01/05 00:07:42;;;;;;;;;;;18.70;66.40;;;;;;4972488;28;1075;-68
2023/01/05 00:22:29;;;;;;;;;;;18.70;66.40;;;;;;4971913;28;887;-68
2023/01/05 00:23:56;;;;;;;;;;;18.70;66.50;;;;;;4970854;28;1093;-68
2023/01/05 00:26:22;;;;;;;;;;;18.60;66.40;;;;;;4971937;28;1906;-68
2023/01/05 00:28:47;;;;;;;;;;;18.60;66.40;;;;;;4971912;28;912;-67
2023/01/05 00:31:13;;;;;;;;;;;18.60;66.40;;;;;;4973141;28;2488;-68
2023/01/05 00:33:38;;;;;;;;;;;18.60;66.40;;;;;;4971727;28;880;-68
2023/01/05 00:36:07;;;;;;;;;;;18.60;66.40;;;;;;4971870;28;998;-69
2023/01/05 00:38:33;;;;;;;;;;;18.60;66.40;;;;;;4971368;28;1606;-69
2023/01/05 00:40:58;;;;;;;;;;;18.60;66.50;;;;;;4986250;28;1323;-68
2023/01/05 00:43:24;;;;;;;;;;;18.60;66.50;;;;;;4971681;28;875;-68
2023/01/05 00:45:49;;;;;;;;;;;18.60;66.40;;;;;;4971604;28;1910;-68
2023/01/05 00:48:15;;;;;;;;;;;18.60;66.50;;;;;;4971499;28;1075;-68
2023/01/05 00:50:40;;;;;;;;;;;18.60;66.50;;;;;;4971173;28;1327;-71
2023/01/05 00:53:06;;;;;;;;;;;18.60;66.50;;;;;;4971459;28;948;-68
2023/01/05 00:55:31;;;;;;;;;;;18.60;66.50;;;;;;4971014;28;1051;-69
2023/01/05 00:57:57;;;;;;;;;;;18.60;66.50;;;;;;4971550;28;852;-68
2023/01/05 01:00:22;;;;;;;;;;;18.60;66.50;;;;;;4971361;28;874;-68
2023/01/05 01:02:49;;;;;;;;;;;18.60;66.50;;;;;;4971223;28;1324;-68
2023/01/05 01:05:15;;;;;;;;;;;18.60;66.50;;;;;;4972311;28;1907;-68
2023/01/05 01:07:40;;;;;;;;;;;18.60;66.50;;;;;;4971592;28;863;-69
2023/01/05 01:10:06;;;;;;;;;;;18.60;66.50;;;;;;4971133;28;809;-68
2023/01/05 01:12:31;;;;;;;;;;;18.60;66.50;;;;;;4968181;28;1287;-68
2023/01/05 01:14:57;;;;;;;;;;;18.60;66.50;;;;;;4971377;28;942;-68
2023/01/05 01:17:22;;;;;;;;;;;18.60;67.30;;;;;;4971199;28;866;-68
2023/01/05 01:19:48;;;;;;;;;;;18.60;66.50;;;;;;4971067;28;853;-68
2023/01/05 01:22:13;;;;;;;;;;;18.60;66.60;;;;;;4971321;28;1246;-68
2023/01/05 01:24:39;;;;;;;;;;;18.60;66.60;;;;;;4971471;28;813;-68
2023/01/05 01:27:04;;;;;;;;;;;18.60;66.60;;;;;;4971892;28;1906;-68
2023/01/05 01:29:30;;;;;;;;;;;18.60;66.60;;;;;;4971765;28;1027;-68
2023/01/05 01:31:56;;;;;;;;;;;18.60;66.60;;;;;;4987570;28;1433;-69
2023/01/05 01:34:22;;;;;;;;;;;18.60;66.60;;;;;;4974782;28;1281;-68
2023/01/05 01:36:47;;;;;;;;;;;18.60;66.60;;;;;;4973619;28;912;-68
2023/01/05 01:39:13;;;;;;;;;;;18.60;66.60;;;;;;4974114;28;1321;-68
2023/01/05 01:41:38;;;;;;;;;;;18.60;66.60;;;;;;4974346;28;1420;-68
2023/01/05 01:44:22;;;;;;;;;;;18.60;66.60;;;;;;4974367;28;1313;-68
2023/01/05 01:46:48;;;;;;;;;;;18.60;66.60;;;;;;4974442;28;1898;-68
2023/01/05 01:49:13;;;;;;;;;;;18.60;66.60;;;;;;4973102;28;856;-68
2023/01/05 01:51:43;;;;;;;;;;;18.60;66.60;;;;;;4973158;28;1288;-68
2023/01/05 01:54:10;;;;;;;;;;;18.60;66.70;;;;;;4972025;28;896;-68
2023/01/05 01:56:36;;;;;;;;;;;18.60;66.70;;;;;;4974498;28;1041;-68
2023/01/05 01:59:01;;;;;;;;;;;18.60;66.70;;;;;;4973844;28;836;-68
2023/01/05 02:01:27;;;;;;;;;;;18.60;66.70;;;;;;4973788;28;1287;-69
2023/01/05 02:03:52;;;;;;;;;;;18.60;66.70;;;;;;4974305;28;905;-68
2023/01/05 02:06:17;;;;;;;;;;;18.60;66.70;;;;;;4972920;28;1995;-69
2023/01/05 02:08:43;;;;;;;;;;;18.50;66.60;;;;;;4972940;28;1015;-70
2023/01/05 02:11:16;;;;;;;;;;;18.60;66.70;;;;;;4972564;28;1370;-68
2023/01/05 02:13:42;;;;;;;;;;;18.60;66.70;;;;;;4973938;28;904;-68
2023/01/05 02:16:07;;;;;;;;;;;18.60;66.70;;;;;;4973541;28;1182;-68
2023/01/05 02:18:32;;;;;;;;;;;18.60;67.50;;;;;;4972057;28;1772;-69
2023/01/05 02:20:58;;;;;;;;;;;18.60;66.70;;;;;;4971430;28;1341;-68
2023/01/05 02:23:23;;;;;;;;;;;18.60;66.70;;;;;;4974052;28;1586;-69
2023/01/05 02:26:08;;;;;;;;;;;18.50;66.70;;;;;;4972944;28;1907;-68
2023/01/05 02:28:33;;;;;;;;;;;18.50;66.60;;;;;;4973052;28;1355;-67
2023/01/05 02:31:00;;;;;;;;;;;18.50;66.70;;;;;;4973439;28;1443;-69
2023/01/05 02:33:53;;;;;;;;;;;18.50;66.70;;;;;;4971468;28;1615;-68
2023/01/05 02:36:24;;;;;;;;;;;18.50;66.70;;;;;;4973769;28;1557;-67
2023/01/05 02:39:01;;;;;;;;;;;18.50;66.70;;;;;;4973636;28;1484;-69
2023/01/05 02:41:33;;;;;;;;;;;18.50;66.70;;;;;;4955864;28;1371;-69
2023/01/05 02:43:59;;;;;;;;;;;18.50;66.70;;;;;;4971724;28;1457;-67
2023/01/05 02:46:24;;;;;;;;;;;18.50;66.70;;;;;;4972192;28;1902;-67
2023/01/05 02:48:50;;;;;;;;;;;18.50;66.70;;;;;;4973397;28;1429;-70
2023/01/05 02:51:17;;;;;;;;;;;18.50;66.70;;;;;;4971530;28;1311;-68
2023/01/05 02:53:44;;;;;;;;;;;18.50;66.70;;;;;;4972074;28;1423;-68
2023/01/05 02:56:18;;;;;;;;;;;18.50;66.70;;;;;;4972938;28;1353;-67
2023/01/05 02:59:04;;;;;;;;;;;18.50;66.70;;;;;;4973044;28;1544;-67
2023/01/05 03:01:33;;;;;;;;;;;18.50;66.70;;;;;;4973018;28;1404;-69
2023/01/05 03:03:59;;;;;;;;;;;18.50;66.70;;;;;;4971582;28;1331;-71
2023/01/05 03:06:26;;;;;;;;;;;18.50;66.70;;;;;;4973534;28;1938;-69
2023/01/05 03:08:53;;;;;;;;;;;18.50;66.80;;;;;;4972249;28;829;-68
2023/01/05 03:14:06;;;;;;;;;;;18.50;66.80;;;;;;4972310;28;755;-68
2023/01/05 03:16:33;;;;;;;;;;;18.50;66.80;;;;;;4973611;28;879;-68
2023/01/05 03:35:33;;;;;;;;;;;18.50;66.80;;;;;;4972901;28;764;-70
2023/01/05 03:38:10;;;;;;;;;;;18.50;66.80;;;;;;4971840;28;852;-70
2023/01/05 03:40:36;;;;;;;;;;;18.50;66.80;;;;;;4971655;28;1279;-70
2023/01/05 03:43:02;;;;;;;;;;;18.50;66.80;;;;;;4972965;28;879;-70
2023/01/05 03:45:31;;;;;;;;;;;18.50;66.90;;;;;;4971378;28;1976;-70
2023/01/05 03:47:57;;;;;;;;;;;18.50;66.80;;;;;;4971526;28;919;-70
2023/01/05 03:50:22;;;;;;;;;;;18.50;66.80;;;;;;4972391;28;912;-70
2023/01/05 03:52:48;;;;;;;;;;;18.50;66.80;;;;;;4972663;28;1134;-70
2023/01/05 03:55:13;;;;;;;;;;;18.50;66.80;;;;;;4971762;28;916;-70
2023/01/05 03:57:38;;;;;;;;;;;18.50;66.80;;;;;;4972577;28;844;-70
2023/01/05 04:00:04;;;;;;;;;;;18.50;66.80;;;;;;4972641;28;1048;-70
2023/01/05 04:02:30;;;;;;;;;;;18.50;66.90;;;;;;4971108;28;1375;-70
2023/01/05 04:04:55;;;;;;;;;;;18.50;66.90;;;;;;4972723;28;1283;-70
2023/01/05 04:07:21;;;;;;;;;;;18.50;66.90;;;;;;4972382;28;1906;-70
2023/01/05 04:09:46;;;;;;;;;;;18.50;66.90;;;;;;4972106;28;951;-70
2023/01/05 04:12:12;;;;;;;;;;;18.50;66.90;;;;;;4972149;28;1265;-69
2023/01/05 04:14:37;;;;;;;;;;;18.50;66.90;;;;;;4972233;28;833;-69
2023/01/05 04:17:03;;;;;;;;;;;18.50;66.90;;;;;;4971834;28;828;-71
2023/01/05 04:19:28;;;;;;;;;;;18.50;66.90;;;;;;4971823;28;931;-71
2023/01/05 04:21:53;;;;;;;;;;;18.50;66.90;;;;;;4972164;28;1337;-71
2023/01/05 04:24:19;;;;;;;;;;;18.50;66.90;;;;;;4972115;28;873;-71
2023/01/05 04:26:44;;;;;;;;;;;18.50;66.90;;;;;;4972070;28;1902;-71
2023/01/05 04:29:10;;;;;;;;;;;18.50;66.90;;;;;;4971716;28;1210;-71
2023/01/05 04:31:35;;;;;;;;;;;18.50;66.90;;;;;;4970975;28;1356;-70
2023/01/05 04:34:01;;;;;;;;;;;18.50;66.90;;;;;;4971965;28;1063;-70
2023/01/05 04:36:26;;;;;;;;;;;18.50;66.90;;;;;;4971277;28;804;-71
2023/01/05 04:38:52;;;;;;;;;;;18.50;66.90;;;;;;4971748;28;935;-72
2023/01/05 04:41:17;;;;;;;;;;;18.50;66.90;;;;;;4971760;28;1261;-71
2023/01/05 04:43:43;;;;;;;;;;;18.50;66.90;;;;;;4971860;28;932;-71
2023/01/05 04:46:08;;;;;;;;;;;18.50;66.90;;;;;;4971773;28;1969;-70
2023/01/05 04:48:34;;;;;;;;;;;18.50;66.90;;;;;;4971918;28;857;-69
2023/01/05 04:50:59;;;;;;;;;;;18.50;66.90;;;;;;4970091;28;1304;-70
2023/01/05 04:53:25;;;;;;;;;;;18.50;66.90;;;;;;4971664;28;944;-70
2023/01/05 04:55:50;;;;;;;;;;;18.50;66.90;;;;;;4971699;28;805;-70
2023/01/05 04:58:16;;;;;;;;;;;18.50;67.00;;;;;;4971561;28;918;-70
2023/01/05 05:00:41;;;;;;;;;;;18.50;67.00;;;;;;4971516;28;1291;-70
2023/01/05 05:03:07;;;;;;;;;;;18.50;67.00;;;;;;4971435;28;828;-70
2023/01/05 05:05:32;;;;;;;;;;;18.50;67.00;;;;;;4971415;28;1958;-70
2023/01/05 05:07:58;;;;;;;;;;;18.50;67.00;;;;;;4971607;28;920;-70
2023/01/05 05:10:23;;;;;;;;;;;18.50;67.00;;;;;;4971812;28;1090;-70
2023/01/05 05:12:49;;;;;;;;;;;18.50;66.90;;;;;;4971142;28;1301;-69
2023/01/05 05:15:14;;;;;;;;;;;18.50;66.90;;;;;;4971546;28;805;-69
2023/01/05 05:17:39;;;;;;;;;;;18.50;66.90;;;;;;4970205;28;817;-70
2023/01/05 05:20:05;;;;;;;;;;;18.50;66.80;;;;;;4970966;28;883;-70
2023/01/05 05:22:31;;;;;;;;;;;18.50;66.70;;;;;;4971315;28;1342;-69
2023/01/05 05:24:56;;;;;;;;;;;18.60;66.70;;;;;;4969980;28;1078;-69
2023/01/05 05:27:22;;;;;;;;;;;18.60;66.60;;;;;;4970649;28;1960;-70
2023/01/05 05:29:47;;;;;;;;;;;18.60;66.50;;;;;;4969839;28;881;-70
2023/01/05 05:32:12;;;;;;;;;;;18.60;66.40;;;;;;4971092;28;1303;-70
2023/01/05 05:34:38;;;;;;;;;;;18.60;66.40;;;;;;4969965;28;825;-71
2023/01/05 05:37:03;;;;;;;;;;;18.60;66.30;;;;;;4969835;28;1361;-71
2023/01/05 05:39:29;;;;;;;;;;;18.70;66.30;;;;;;4970930;28;1372;-70
2023/01/05 05:41:54;;;;;;;;;;;18.70;66.20;;;;;;4971072;28;1210;-70
2023/01/05 05:44:20;;;;;;;;;;;18.70;66.10;;;;;;4970856;28;1082;-70
2023/01/05 05:46:45;;;;;;;;;;;18.70;66.00;;;;;;4970860;28;1898;-70
2023/01/05 05:49:10;;;;;;;;;;;18.70;65.90;;;;;;4970735;28;813;-70
2023/01/05 05:51:36;;;;;;;;;;;18.80;65.90;;;;;;4970744;28;1251;-70
2023/01/05 05:54:01;;;;;;;;;;;18.80;65.90;;;;;;4971190;28;885;-70
2023/01/05 05:56:27;;;;;;;;;;;18.80;65.80;;;;;;4970904;28;1024;-70
2023/01/05 05:58:52;;;;;;;;;;;18.80;65.80;;;;;;4970637;28;849;-70
2023/01/05 06:01:18;;;;;;;;;;;18.80;65.70;;;;;;4970898;28;1378;-71
2023/01/05 06:03:43;;;;;;;;;;;18.80;65.70;;;;;;4971441;28;1265;-71
2023/01/05 06:06:09;;;;;;;;;;;18.80;65.70;;;;;;4970803;28;1969;-71
2023/01/05 06:08:34;;;;;;;;;;;18.80;65.70;;;;;;4970983;28;845;-71
2023/01/05 06:11:00;;;;;;;;;;;18.80;65.60;;;;;;4970289;28;1242;-69
2023/01/05 06:13:25;;;;;;;;;;;18.80;65.60;;;;;;4970648;28;835;-69
2023/01/05 06:15:50;;;;;;;;;;;18.80;65.60;;;;;;4970658;28;862;-69
2023/01/05 06:18:16;;;;;;;;;;;18.80;65.60;;;;;;4972290;28;889;-68
2023/01/05 06:20:42;;;;;;;;;;;18.80;65.60;;;;;;4972661;28;1352;-70
2023/01/05 06:23:07;;;;;;;;;;;18.80;65.60;;;;;;4973037;28;813;-71
2023/01/05 06:25:33;;;;;;;;;;;18.80;65.60;;;;;;4974154;28;1953;-71
2023/01/05 06:27:58;;;;;;;;;;;18.80;65.50;;;;;;4974126;28;852;-71
2023/01/05 06:30:24;;;;;;;;;;;18.90;65.50;;;;;;4973614;28;861;-71
2023/01/05 06:32:49;;;;;;;;;;;18.90;65.50;;;;;;4972477;28;1170;-71
2023/01/05 06:35:15;;;;;;;;;;;18.90;65.50;;;;;;4973993;28;884;-70
2023/01/05 06:37:40;;;;;;;;;;;18.90;65.40;;;;;;4973838;28;880;-71
2023/01/05 06:40:07;;;;;;;;;;;18.90;65.40;;;;;;4973305;28;1315;-71
2023/01/05 06:42:33;;;;;;;;;;;18.90;65.40;;;;;;4973893;28;1347;-71
2023/01/05 06:44:58;;;;;;;;;;;18.90;65.30;;;;;;4972628;28;862;-71
2023/01/05 06:47:24;;;;;;;;;;;18.90;65.40;;;;;;4973417;28;1899;-69
2023/01/05 06:49:49;;;;;;;;;;;18.90;65.40;;;;;;4972896;28;1400;-69
2023/01/05 06:52:14;;;;;;;;;;;18.90;65.40;;;;;;4973637;28;1278;-70
2023/01/05 06:54:40;;;;;;;;;;;18.90;65.40;;;;;;4973603;28;1064;-70
2023/01/05 06:57:05;;;;;;;;;;;18.90;65.40;;;;;;4973522;28;918;-70
2023/01/05 06:59:31;;;;;;;;;;;18.90;65.40;;;;;;4973883;28;997;-70
2023/01/05 07:01:57;;;;;;;;;;;18.90;65.50;;;;;;4973499;28;1265;-70
2023/01/05 07:04:22;;;;;;;;;;;18.80;66.20;;;;;;4973974;28;1232;-70
2023/01/05 07:06:48;;;;;;;;;;;18.80;65.40;;;;;;4973234;28;1914;-70
2023/01/05 07:09:13;;;;;;;;;;;18.80;65.50;;;;;;4973658;28;1086;-69
2023/01/05 07:11:39;;;;;;;;;;;18.90;65.50;;;;;;4973004;28;1273;-70
2023/01/05 07:14:04;;;;;;;;;;;18.90;65.60;;;;;;4973352;28;833;-70
2023/01/05 07:16:29;;;;;;;;;;;18.90;65.50;;;;;;4973256;28;935;-70
2023/01/05 07:18:55;;;;;;;;;;;18.90;65.50;;;;;;4971771;28;936;-69
2023/01/05 07:21:20;;;;;;;;;;;18.90;65.50;;;;;;4973000;28;1258;-68
2023/01/05 07:23:46;;;;;;;;;;;18.80;65.50;;;;;;4972873;28;844;-69
2023/01/05 07:26:11;;;;;;;;;;;18.80;65.50;;;;;;4971377;28;1902;-70
2023/01/05 07:28:37;;;;;;;;;;;18.90;65.50;;;;;;4973057;28;856;-70
2023/01/05 07:31:03;;;;;;;;;;;18.90;65.50;;;;;;4972944;28;1293;-69
2023/01/05 07:33:29;;;;;;;;;;;18.90;65.50;;;;;;4973813;28;799;-69
2023/01/05 07:35:54;;;;;;;;;;;18.90;65.50;;;;;;4971678;28;997;-69
2023/01/05 07:38:20;;;;;;;;;;;18.90;66.30;;;;;;4972956;28;1363;-70
2023/01/05 07:40:45;;;;;;;;;;;18.90;65.50;;;;;;4967839;28;1743;-69
2023/01/05 07:43:11;;;;;;;;;;;18.90;65.50;;;;;;4971820;28;1423;-72
2023/01/05 07:45:36;;;;;;;;;;;18.90;66.30;;;;;;4972261;28;1914;-74
2023/01/05 07:48:02;;;;;;;;;;;18.90;65.50;;;;;;4971163;28;857;-75
2023/01/05 07:50:28;;;;;;;;;;;18.90;65.50;;;;;;4971523;28;921;-75
2023/01/05 07:52:53;;;;;;;;;;;18.90;65.50;;;;;;4972106;28;1332;-72
2023/01/05 07:55:19;;;;;;;;;;;18.90;65.50;;;;;;4972249;28;1002;-73
2023/01/05 07:57:45;;;;;;;;;;;18.90;65.50;;;;;;4972676;28;923;-71
2023/01/05 08:00:13;;;;;;;;;;;18.90;65.50;;;;;;4972657;28;853;-71
2023/01/05 08:02:38;;;;;;;;;;;18.90;65.50;;;;;;4972238;28;1366;-72
2023/01/05 08:05:04;;;;;;;;;;;18.90;65.50;;;;;;4989764;28;1260;-70
2023/01/05 08:07:29;;;;;;;;;;;18.90;65.50;;;;;;4994709;28;1894;-71
2023/01/05 08:13:58;;;;;;;;;;;18.90;65.40;;;;;;4978112;28;1210;-69
2023/01/05 08:15:24;;;;;;;;;;;18.90;65.40;;;;;;4971651;28;1088;-70
2023/01/05 08:17:50;;;;;;;;;;;18.90;65.40;;;;;;4972342;28;1048;-72
2023/01/05 08:20:15;;;;;;;;;;;18.90;65.40;;;;;;4970471;28;1145;-69
2023/01/05 08:22:41;;;;;;;;;;;18.90;65.40;;;;;;4972628;28;1279;-69
2023/01/05 08:25:06;;;;;;;;;;;18.90;65.40;;;;;;4971032;28;2206;-72
2023/01/05 08:27:33;;;;;;;;;;;18.90;65.40;;;;;;4972890;28;1898;-72
2023/01/05 08:29:59;;;;;;;;;;;18.80;65.40;;;;;;4973872;28;805;-72
2023/01/05 08:32:24;;;;;;;;;;;18.90;65.50;;;;;;4971725;28;1421;-71
2023/01/05 08:34:50;;;;;;;;;;;18.90;65.50;;;;;;4986543;28;1255;-71
2023/01/05 08:37:15;;;;;;;;;;;18.90;65.40;;;;;;4971791;28;893;-72
2023/01/05 08:39:40;;;;;;;;;;;18.90;65.50;;;;;;4971514;28;1350;-70
2023/01/05 08:42:06;;;;;;;;;;;18.90;65.40;;;;;;4971433;28;1906;-71
2023/01/05 08:44:31;;;;;;;;;;;18.90;65.40;;;;;;4972070;28;942;-71
2023/01/05 08:46:57;;;;;;;;;;;18.90;65.40;;;;;;4974951;28;1934;-71
2023/01/05 08:49:23;;;;;;;;;;;18.90;65.40;;;;;;4972333;28;951;-71
2023/01/05 08:51:48;;;;;;;;;;;18.90;65.40;;;;;;4972224;28;1554;-71
2023/01/05 08:54:13;;;;;;;;;;;18.90;65.40;;;;;;4971764;28;865;-71
2023/01/05 08:56:39;;;;;;;;;;;18.90;65.30;;;;;;4971388;28;861;-71
2023/01/05 08:59:04;;;;;;;;;;;18.90;65.40;;;;;;4971323;28;882;-71
2023/01/05 09:01:30;;;;;;;;;;;18.90;65.40;;;;;;4970731;28;1329;-71
2023/01/05 09:03:55;;;;;;;;;;;18.90;65.40;;;;;;4951698;28;1446;-73
2023/01/05 09:06:21;;;;;;;;;;;18.90;65.40;;;;;;4970027;28;1969;-72
2023/01/05 09:08:47;;;;;;;;;;;18.90;65.40;;;;;;4969879;28;880;-72
2023/01/05 09:11:12;;;;;;;;;;;18.90;65.40;;;;;;4970968;28;1345;-72
2023/01/05 09:13:38;;;;;;;;;;;18.90;65.30;;;;;;4971504;28;849;-72
2023/01/05 09:16:06;;;;;;;;;;;18.90;65.30;;;;;;4969660;28;1960;-72
2023/01/05 09:18:32;;;;;;;;;;;18.90;65.30;;;;;;4968976;28;1197;-71
2023/01/05 09:20:57;;;;;;;;;;;18.90;65.30;;;;;;4971010;28;1304;-73
2023/01/05 09:23:23;;;;;;;;;;;18.90;65.30;;;;;;4971467;28;1378;-72
2023/01/05 09:25:48;;;;;;;;;;;18.90;65.30;;;;;;4971664;28;1902;-72
2023/01/05 09:28:14;;;;;;;;;;;18.90;65.30;;;;;;4972215;28;893;-71
2023/01/05 09:30:39;;;;;;;;;;;18.90;65.50;;;;;;4971322;28;1374;-71
2023/01/05 09:33:05;;;;;;;;;;;18.90;65.40;;;;;;4971418;28;719;-71
2023/01/05 09:35:30;;;;;;;;;;;18.90;65.40;;;;;;4971184;28;814;-70
2023/01/05 09:37:55;;;;;;;;;;;18.90;65.40;;;;;;4970132;28;904;-70
2023/01/05 09:40:21;;;;;;;;;;;18.90;65.40;;;;;;4970993;28;1173;-70
2023/01/05 09:42:46;;;;;;;;;;;18.90;65.50;;;;;;4971091;28;1284;-72
2023/01/05 09:45:12;;;;;;;;;;;18.90;65.50;;;;;;4969946;28;863;-72
2023/01/05 09:47:38;;;;;;;;;;;18.90;65.50;;;;;;4969754;28;1971;-72
2023/01/05 09:50:05;;;;;;;;;;;18.90;65.50;;;;;;4970663;28;911;-73
2023/01/05 09:52:30;;;;;;;;;;;18.80;65.50;;;;;;4971762;28;1303;-71
2023/01/05 09:54:56;;;;;;;;;;;18.90;65.60;;;;;;4973658;28;951;-71
2023/01/05 09:57:25;;;;;;;;;;;18.80;65.50;;;;;;4974816;28;888;-72
2023/01/05 09:59:52;;;;;;;;;;;18.80;65.60;;;;;;4974848;28;1258;-72
2023/01/05 10:02:19;;;;;;;;;;;18.80;65.60;;;;;;4972421;28;1361;-72
2023/01/05 10:04:45;;;;;;;;;;;18.80;65.60;;;;;;4973409;28;1353;-72
2023/01/05 10:07:24;;;;;;;;;;;18.80;65.70;;;;;;4973487;28;1910;-72
2023/01/05 10:09:49;;;;;;;;;;;18.80;65.70;;;;;;4973059;28;821;-73
2023/01/05 10:15:22;;;;;;;;;;;18.80;65.70;;;;;;4973701;28;1238;-72
2023/01/05 10:17:47;;;;;;;;;;;18.80;65.70;;;;;;4974443;28;878;-71
2023/01/05 10:20:15;;;;;;;;;;;18.80;65.80;;;;;;4974105;28;852;-71
2023/01/05 10:22:40;;;;;;;;;;;18.80;65.80;;;;;;4971949;28;1429;-71
2023/01/05 10:25:13;;;;;;;;;;;18.80;65.80;;;;;;4972845;28;884;-72
2023/01/05 10:27:40;;;;;;;;;;;18.80;65.80;;;;;;4972808;28;1961;-72
2023/01/05 10:30:12;;;;;;;;;;;18.80;65.90;;;;;;4974049;28;1035;-72
2023/01/05 10:32:38;;;;;;;;;;;18.80;65.90;;;;;;4971998;28;2040;-72
2023/01/05 10:35:26;;;;;;;;;;;18.80;65.90;;;;;;4974202;28;1498;-73
2023/01/05 10:37:51;;;;;;;;;;;18.70;65.90;;;;;;4965742;28;1237;-73
2023/01/05 10:40:20;;;;;;;;;;;18.70;65.90;;;;;;4972995;28;1798;-72
2023/01/05 10:43:07;;;;;;;;;;;18.70;65.90;;;;;;4973902;28;1324;-72
2023/01/05 10:45:33;;;;;;;;;;;18.70;65.90;;;;;;4973762;28;1906;-72
2023/01/05 10:47:58;;;;;;;;;;;18.70;66.00;;;;;;4973459;28;1318;-73
2023/01/05 10:50:34;;;;;;;;;;;18.70;66.00;;;;;;4972211;28;1394;-73
2023/01/05 10:53:02;;;;;;;;;;;18.70;66.00;;;;;;4972232;28;892;-73
2023/01/05 10:55:27;;;;;;;;;;;18.70;66.10;;;;;;4973045;28;1410;-73
2023/01/05 10:57:53;;;;;;;;;;;18.70;66.10;;;;;;4971438;28;837;-73
2023/01/05 11:00:19;;;;;;;;;;;18.70;66.10;;;;;;4973196;28;1341;-73
2023/01/05 11:02:46;;;;;;;;;;;18.70;66.10;;;;;;4968182;28;2227;-73
2023/01/05 11:05:15;;;;;;;;;;;18.70;66.10;;;;;;4972395;28;1339;-73
2023/01/05 11:07:50;;;;;;;;;;;18.70;66.10;;;;;;4972796;28;2044;-73
2023/01/05 11:10:20;;;;;;;;;;;18.70;66.20;;;;;;4945147;28;1386;-72
2023/01/05 11:12:49;;;;;;;;;;;18.70;66.20;;;;;;4970997;28;1425;-73
2023/01/05 11:15:18;;;;;;;;;;;18.70;66.20;;;;;;4971853;28;916;-73
2023/01/05 11:17:43;;;;;;;;;;;18.70;66.20;;;;;;4973335;28;899;-73
2023/01/05 11:20:15;;;;;;;;;;;18.60;66.10;;;;;;4972600;28;948;-73
2023/01/05 11:22:43;;;;;;;;;;;18.60;66.20;;;;;;4971722;28;1367;-73
2023/01/05 11:25:24;;;;;;;;;;;18.70;66.30;;;;;;4973249;28;863;-73
2023/01/05 11:28:08;;;;;;;;;;;18.60;66.20;;;;;;4972520;28;1915;-72
2023/01/05 11:30:33;;;;;;;;;;;18.60;66.20;;;;;;4972789;28;1279;-73
2023/01/05 11:33:00;;;;;;;;;;;18.60;66.20;;;;;;4972533;28;2120;-73
2023/01/05 11:35:52;;;;;;;;;;;18.60;66.30;;;;;;4970708;28;2407;-73
2023/01/05 11:38:21;;;;;;;;;;;18.60;66.30;;;;;;4969120;28;1380;-72
2023/01/05 11:40:47;;;;;;;;;;;18.60;66.40;;;;;;4971035;28;1517;-72
2023/01/05 11:43:14;;;;;;;;;;;18.60;66.30;;;;;;4971640;28;977;-72
2023/01/05 11:45:40;;;;;;;;;;;18.60;66.30;;;;;;4972834;28;1956;-72
2023/01/05 11:48:07;;;;;;;;;;;18.60;66.30;;;;;;4970465;28;817;-71
2023/01/05 11:50:41;;;;;;;;;;;18.60;66.40;;;;;;4972332;28;1346;-71
2023/01/05 11:53:08;;;;;;;;;;;18.60;66.40;;;;;;4972584;28;991;-72
2023/01/05 11:55:38;;;;;;;;;;;18.60;66.40;;;;;;4970951;28;1293;-71
2023/01/05 11:58:19;;;;;;;;;;;18.60;66.40;;;;;;4970688;28;892;-72
2023/01/05 12:00:51;;;;;;;;;;;18.60;66.40;;;;;;4970425;28;1313;-72
2023/01/05 12:03:16;;;;;;;;;;;18.60;66.40;;;;;;4970413;28;982;-72
2023/01/05 12:05:52;;;;;;;;;;;18.60;66.40;;;;;;4972091;28;1915;-73
2023/01/05 12:08:27;;;;;;;;;;;18.60;66.40;;;;;;4970073;28;853;-73
2023/01/05 12:10:54;;;;;;;;;;;18.60;66.40;;;;;;4969885;28;1403;-73
2023/01/05 12:13:24;;;;;;;;;;;18.60;66.50;;;;;;4970083;28;1358;-72
2023/01/05 12:15:55;;;;;;;;;;;18.60;66.50;;;;;;4970723;28;1394;-73
2023/01/05 12:18:26;;;;;;;;;;;18.60;66.50;;;;;;4971398;28;971;-73
2023/01/05 12:20:55;;;;;;;;;;;18.60;66.50;;;;;;4971511;28;1609;-73
2023/01/05 12:23:40;;;;;;;;;;;18.60;66.40;;;;;;4970529;28;876;-73
2023/01/05 12:26:14;;;;;;;;;;;18.60;67.20;;;;;;4971374;28;1964;-73
2023/01/05 12:28:42;;;;;;;;;;;18.60;66.30;;;;;;4972269;28;952;-73
2023/01/05 12:31:26;;;;;;;;;;;18.60;66.30;;;;;;4972825;28;1289;-73
2023/01/05 12:34:18;;;;;;;;;;;18.60;66.30;;;;;;4974301;28;1050;-73
2023/01/05 12:36:43;;;;;;;;;;;18.70;66.30;;;;;;4947988;28;1319;-73
2023/01/05 12:39:18;;;;;;;;;;;18.60;66.10;;;;;;4971409;28;1289;-72
2023/01/05 12:41:47;;;;;;;;;;;18.70;66.10;;;;;;4971111;28;1396;-73
2023/01/05 12:44:23;;;;;;;;;;;18.70;66.00;;;;;;4970926;28;1265;-73
2023/01/05 12:47:07;;;;;;;;;;;18.70;65.90;;;;;;4968668;28;1914;-72
2023/01/05 12:49:43;;;;;;;;;;;18.80;65.90;;;;;;4969213;28;1516;-72
2023/01/05 12:52:24;;;;;;;;;;;18.80;65.90;;;;;;4969164;28;1384;-70
2023/01/05 12:54:52;;;;;;;;;;;18.80;65.80;;;;;;4970673;28;1180;-71
2023/01/05 12:57:22;;;;;;;;;;;18.80;65.70;;;;;;4969054;28;1319;-68
2023/01/05 12:59:55;;;;;;;;;;;18.80;65.70;;;;;;4970765;28;1147;-67
2023/01/05 13:02:34;;;;;;;;;;;18.80;65.60;;;;;;4969014;28;1331;-67
2023/01/05 13:05:01;;;;;;;;;;;18.80;65.60;;;;;;4970937;28;1388;-68
2023/01/05 13:07:36;;;;;;;;;;;18.80;65.50;;;;;;4969592;28;1957;-70
2023/01/05 13:10:03;;;;;;;;;;;18.90;65.50;;;;;;4969948;28;897;-68
2023/01/05 13:12:29;;;;;;;;;;;18.90;65.50;;;;;;4969388;28;1332;-69
2023/01/05 13:15:15;;;;;;;;;;;18.90;65.50;;;;;;4970999;28;1448;-69
2023/01/05 13:17:50;;;;;;;;;;;18.90;65.50;;;;;;4969169;28;1325;-71
2023/01/05 13:20:26;;;;;;;;;;;18.80;65.50;;;;;;4969829;28;1450;-71
2023/01/05 13:22:54;;;;;;;;;;;18.90;65.50;;;;;;4969547;28;1467;-69
2023/01/05 13:25:20;;;;;;;;;;;18.80;65.50;;;;;;4985547;28;1437;-69
2023/01/05 13:27:45;;;;;;;;;;;18.90;65.50;;;;;;4972129;28;1882;-70
2023/01/05 13:30:21;;;;;;;;;;;18.90;65.50;;;;;;4973345;28;1518;-69
2023/01/05 13:32:53;;;;;;;;;;;18.90;65.50;;;;;;4974198;28;1366;-69
2023/01/05 13:35:24;;;;;;;;;;;18.90;65.40;;;;;;4973868;28;1334;-69
2023/01/05 13:37:52;;;;;;;;;;;18.90;65.40;;;;;;4974653;28;1459;-69
2023/01/05 13:40:24;;;;;;;;;;;18.90;65.30;;;;;;4974249;28;1324;-68
2023/01/05 13:42:52;;;;;;;;;;;18.90;65.30;;;;;;4974997;28;1275;-70
2023/01/05 13:45:30;;;;;;;;;;;18.90;65.30;;;;;;4973996;28;1008;-70
2023/01/05 13:47:59;;;;;;;;;;;18.90;65.30;;;;;;4973405;28;1178;-70
2023/01/05 13:50:31;;;;;;;;;;;18.90;65.30;;;;;;4974531;28;829;-71
2023/01/05 13:53:05;;;;;;;;;;;18.90;65.30;;;;;;4974193;28;885;-71
2023/01/05 13:55:31;;;;;;;;;;;18.90;65.30;;;;;;4973175;28;1261;-71
2023/01/05 13:57:56;;;;;;;;;;;18.90;65.30;;;;;;4954584;28;1330;-72
2023/01/05 14:00:22;;;;;;;;;;;18.90;65.40;;;;;;4974759;28;1271;-71
2023/01/05 14:03:13;;;;;;;;;;;18.90;65.40;;;;;;4972845;28;1350;-70
2023/01/05 14:06:07;;;;;;;;;;;18.90;65.40;;;;;;4968229;28;1906;-69
2023/01/05 14:08:34;;;;;;;;;;;18.90;65.40;;;;;;4955513;28;1338;-72
2023/01/05 14:11:10;;;;;;;;;;;18.80;65.40;;;;;;4972509;28;1280;-70
2023/01/05 14:13:45;;;;;;;;;;;18.90;65.40;;;;;;4973019;28;908;-71
2023/01/05 14:16:29;;;;;;;;;;;18.90;65.40;;;;;;4974237;28;869;-71
2023/01/05 14:18:56;;;;;;;;;;;18.90;65.40;;;;;;4973838;28;1038;-70
2023/01/05 14:21:40;;;;;;;;;;;18.90;65.40;;;;;;4973664;28;1347;-72
2023/01/05 14:24:22;;;;;;;;;;;18.90;65.40;;;;;;4975885;28;924;-75
2023/01/05 14:27:01;;;;;;;;;;;18.90;65.40;;;;;;4973086;28;1984;-70
2023/01/05 14:29:50;;;;;;;;;;;18.90;65.40;;;;;;4972509;28;876;-71
2023/01/05 14:32:24;;;;;;;;;;;18.90;65.40;;;;;;4970097;28;1265;-71
2023/01/05 14:34:50;;;;;;;;;;;18.90;65.30;;;;;;4973659;28;833;-71
2023/01/05 14:37:22;;;;;;;;;;;18.90;65.30;;;;;;4972078;28;1083;-72
2023/01/05 14:39:50;;;;;;;;;;;18.90;65.30;;;;;;4971504;28;1305;-72
2023/01/05 14:42:18;;;;;;;;;;;18.90;65.30;;;;;;4972133;28;1276;-72
2023/01/05 14:44:57;;;;;;;;;;;18.90;65.30;;;;;;4972952;28;836;-74
2023/01/05 14:47:39;;;;;;;;;;;18.90;65.40;;;;;;4971845;28;1911;-70
2023/01/05 14:50:05;;;;;;;;;;;18.90;65.40;;;;;;4971772;28;982;-70
2023/01/05 14:52:50;;;;;;;;;;;18.90;65.30;;;;;;4971602;28;1190;-71
2023/01/05 14:55:20;;;;;;;;;;;18.90;65.40;;;;;;4972405;28;1030;-72
2023/01/05 14:57:49;;;;;;;;;;;18.90;65.40;;;;;;4974389;28;967;-76
2023/01/05 15:00:20;;;;;;;;;;;18.90;65.30;;;;;;4957303;28;1345;-75
2023/01/05 15:03:05;;;;;;;;;;;18.90;65.40;;;;;;4973828;28;1321;-77
2023/01/05 15:05:30;;;;;;;;;;;18.90;65.40;;;;;;4974604;28;995;-75
2023/01/05 15:07:59;;;;;;;;;;;18.90;65.40;;;;;;4972626;28;1965;-70
2023/01/05 15:10:43;;;;;;;;;;;18.90;65.40;;;;;;4971579;28;936;-72
2023/01/05 15:13:17;;;;;;;;;;;18.90;65.40;;;;;;4973179;28;1086;-72
2023/01/05 15:15:46;;;;;;;;;;;18.90;65.40;;;;;;4972641;28;892;-73